createdAt,value
2023-03-28T00:08:59.767Z,67.79
2023-03-28T00:19:08.789Z,68.05
2023-03-28T00:29:15.847Z,68.23
2023-03-28T00:39:18.359Z,67.92
2023-03-28T00:49:24.894Z,68.76
2023-03-28T00:59:30.825Z,70.16
2023-03-28T01:09:33.827Z,71.25
2023-03-28T01:19:59.050Z,72.48
2023-03-28T01:30:29.898Z,73.07
2023-03-28T01:41:19.265Z,74.21
2023-03-28T01:51:28.889Z,73.13
2023-03-28T02:01:45.279Z,73.27
2023-03-28T02:11:52.168Z,73.76
2023-03-28T02:22:16.394Z,73.31
2023-03-28T02:32:25.642Z,73.60
2023-03-28T02:42:47.329Z,73.92
2023-03-28T02:53:12.498Z,73.82
2023-03-28T03:03:16.903Z,74.11
2023-03-28T03:13:19.921Z,74.53
2023-03-28T03:23:22.564Z,75.23
2023-03-28T03:33:31.852Z,74.59
2023-03-28T03:43:39.114Z,73.92
2023-03-28T03:53:42.172Z,74.11
2023-03-28T04:03:51.935Z,72.47
2023-03-28T04:14:01.012Z,72.18
2023-03-28T04:24:04.021Z,72.29
2023-03-28T04:34:14.211Z,73.18
2023-03-28T04:44:32.776Z,71.08
2023-03-28T04:54:39.346Z,70.15
2023-03-28T05:04:47.364Z,68.86
2023-03-28T05:14:50.396Z,68.70
2023-03-28T05:24:53.543Z,68.19
2023-03-28T05:34:56.705Z,64.79
2023-03-28T05:45:08.190Z,62.10
2023-03-28T05:55:29.177Z,60.11
2023-03-28T06:05:32.156Z,58.66
2023-03-28T06:15:34.882Z,64.34
2023-03-28T06:25:37.808Z,63.33
2023-03-28T06:35:40.799Z,51.95
2023-03-28T06:45:43.506Z,56.53
2023-03-28T06:55:51.317Z,50.97
2023-03-28T07:05:54.465Z,52.93
2023-03-28T07:16:05.783Z,53.03
2023-03-28T07:26:09.976Z,50.53
2023-03-28T07:36:21.569Z,48.64
2023-03-28T07:46:30.026Z,44.00
2023-03-28T07:56:32.984Z,42.20
2023-03-28T08:06:49.278Z,41.42
2023-03-28T08:16:52.182Z,40.42
2023-03-28T08:26:55.032Z,38.74
2023-03-28T08:36:58.417Z,39.51
2023-03-28T08:47:25.775Z,39.01
2023-03-28T08:57:32.286Z,39.47
2023-03-28T09:08:10.845Z,37.44
2023-03-28T09:18:26.341Z,40.53
2023-03-28T09:28:35.564Z,35.62
2023-03-28T09:39:08.804Z,40.50
2023-03-28T09:49:23.869Z,38.12
2023-03-28T09:59:35.609Z,39.57
2023-03-28T10:09:48.762Z,37.28
2023-03-28T10:19:53.937Z,37.59
2023-03-28T10:30:32.237Z,38.13
2023-03-28T10:40:35.897Z,36.08
2023-03-28T10:51:00.122Z,39.32
2023-03-28T11:01:12.123Z,41.03
2023-03-28T11:12:06.237Z,51.58
2023-03-28T11:22:14.704Z,48.74
2023-03-28T11:32:37.969Z,44.16
2023-03-28T11:42:50.082Z,49.47
2023-03-28T11:53:00.985Z,61.73
2023-03-28T12:03:23.931Z,82.01
2023-03-28T12:13:46.242Z,69.12
2023-03-28T12:24:23.236Z,55.69
2023-03-28T12:34:48.936Z,54.56
2023-03-28T12:45:46.125Z,49.55
2023-03-28T12:55:51.602Z,48.71
2023-03-28T13:06:26.512Z,50.65
2023-03-28T13:16:52.618Z,62.36
2023-03-28T13:27:11.044Z,62.04
2023-03-28T13:37:22.810Z,59.73
2023-03-28T13:47:36.414Z,65.37
2023-03-28T13:57:39.065Z,53.77
2023-03-28T14:07:41.828Z,51.51
2023-03-28T14:17:45.048Z,51.30
2023-03-28T14:27:52.783Z,52.45
2023-03-28T14:38:01.444Z,58.03
2023-03-28T14:48:13.282Z,49.21
2023-03-28T14:58:19.041Z,51.06
2023-03-28T15:08:34.143Z,48.82
2023-03-28T15:19:07.059Z,53.57
2023-03-28T15:29:13.114Z,55.16
2023-03-28T15:39:24.185Z,58.20
2023-03-28T15:49:28.690Z,58.71
2023-03-28T15:59:42.283Z,59.21
2023-03-28T16:09:46.977Z,62.78
2023-03-28T16:20:28.479Z,67.06
2023-03-28T16:30:42.528Z,68.33
2023-03-28T16:40:45.937Z,70.72
2023-03-28T16:50:55.651Z,71.54
2023-03-28T17:01:04.739Z,73.21
2023-03-28T17:11:13.774Z,74.10
2023-03-28T17:21:19.859Z,74.82
2023-03-28T17:31:22.506Z,74.78
2023-03-28T17:41:27.920Z,76.12
2023-03-28T17:51:30.856Z,75.79
2023-03-28T18:01:47.540Z,76.25
2023-03-28T18:11:51.388Z,77.09
2023-03-28T18:21:57.298Z,81.82
2023-03-28T18:32:07.385Z,82.13
2023-03-28T18:42:21.086Z,78.36
2023-03-28T18:52:28.331Z,71.28
2023-03-28T19:02:36.215Z,71.23
2023-03-28T19:12:39.814Z,69.64
2023-03-28T19:22:49.092Z,69.36
2023-03-28T19:33:05.614Z,70.52
2023-03-28T19:43:13.249Z,75.07
2023-03-28T19:53:16.287Z,75.99
2023-03-28T20:03:19.522Z,79.93
2023-03-28T20:13:22.255Z,81.14
2023-03-28T20:23:26.936Z,77.61
2023-03-28T20:33:49.745Z,78.93
2023-03-28T20:44:13.769Z,79.54
2023-03-28T20:54:35.827Z,77.63
2023-03-28T21:04:43.150Z,76.93
2023-03-28T21:14:49.162Z,76.06
2023-03-28T21:24:55.140Z,75.51
2023-03-28T21:34:58.763Z,76.45
2023-03-28T21:45:02.067Z,77.52
2023-03-28T21:55:09.797Z,81.32
2023-03-28T22:05:22.499Z,80.08
2023-03-28T22:15:32.595Z,79.39
2023-03-28T22:25:38.527Z,80.54
2023-03-28T22:35:48.198Z,81.19
2023-03-28T22:45:50.798Z,83.79
2023-03-28T22:55:53.921Z,85.28
2023-03-28T23:06:06.205Z,87.04
2023-03-28T23:16:25.819Z,86.41
2023-03-28T23:26:28.357Z,87.50
2023-03-28T23:36:31.905Z,86.31
2023-03-28T23:46:38.600Z,86.11
2023-03-28T23:56:46.176Z,86.90
